Science Garden, Philippines

8:38 PM PHT on December 04, 2016 (GMT +0800)
Manila City | | Change Station

Elev 0 ft 14.60 °N, 120.97 °E | Updated 1 minute ago

Mostly Cloudy
Mostly Cloudy
82.4 °F
Feels Like 89 °F
N
1.2
Wind Variable Wind from NW
Gusts 3.1 mph

Today
High -- | Low -- °F
--% Chance of Precip.
Yesterday
High -- | Low -- °F
Precip. -- in
Pressure 29.89 in
Visibility 6.2 miles
Clouds Few 2500 ft
Mostly Cloudy 9000 ft
Heat Index 89 °F
Dew Point 75 °F
Humidity 78%
Rainfall Not available.
Snow Depth Not available.
6:06 AM 5:25 PM
Waxing Crescent, 22% visible
METAR RPLL 041200Z 07006KT 9999 FEW025 BKN090 28/21 Q1012 NOSIG RMK A2988
Pressure 29.89 in
Visibility 6.2 miles
Clouds Few 2500 ft
Mostly Cloudy 9000 ft
Heat Index 89 °F
Dew Point 75 °F
Humidity 78%
Rainfall Not available.
Snow Depth Not available.
6:06 AM 5:25 PM
Waxing Crescent, 22% visible
METAR RPLL 041200Z 07006KT 9999 FEW025 BKN090 28/21 Q1012 NOSIG RMK A2988

10-Day Weather Forecast

No radar image for this location.
×

Almanac

Astronomy

Dec. 04, 2016 Rise Set
Actual Time
Civil Twilight
Nautical Twilight
Astronomical Twilight
Moon
Length of Visible Light
Length of Day
Tomorrow will be .
, % of the Moon is Illuminated

Today's Extremes

Country Highs Country Lows

Community

WunderPhotos

Upload Photos

1,955,593 photos uploaded!

WunderBlog® & News

Nearby

Air Quality

  Air Quality AQ Index Pollutant
Not available.

Snow Depth

Station Depth Elevation

Earthquake Activity

City Distance Mag. Time & Date
Minimum magnitude displayed is 2.5.

Coastal Water Temperatures

Place Temperature

Stations

Nearby Weather Stations

Station Location Temp. Windchill Dew Point Humidity Wind Precip. Elev Updated Type